Time;durP1;ratioP1;P1;durP2;ratioP2;P2;SDS_P1;SDS_P2;PMS_P1;PMS_P2;Temp;Humidity;BMP_temperature;BMP_pressure;BME280_temperature;BME280_humidity;BME280_pressure;Samples;Min_cycle;Max_cycle;Signal;HPM_P1;HPM_P2
2022/12/31 00:00:37;;;;;;;1.45;1.35;;;10.30;99.90;;;;;;4981939;28;20034;-83
2022/12/31 00:03:04;;;;;;;1.40;1.30;;;10.40;99.90;;;;;;4982879;28;20042;-83
2022/12/31 00:05:33;;;;;;;1.50;1.40;;;10.40;99.90;;;;;;4987979;28;20026;-82
2022/12/31 00:08:00;;;;;;;1.92;1.70;;;10.50;99.90;;;;;;4989009;28;20035;-83
2022/12/31 00:10:26;;;;;;;1.55;1.45;;;10.50;99.90;;;;;;4982643;28;20314;-82
2022/12/31 00:12:52;;;;;;;3.72;1.40;;;10.50;99.90;;;;;;4985569;28;20498;-81
2022/12/31 00:15:17;;;;;;;1.50;1.40;;;10.60;99.90;;;;;;4985113;28;20022;-83
2022/12/31 00:17:43;;;;;;;1.30;1.20;;;10.60;99.90;;;;;;4985935;28;20026;-83
2022/12/31 00:20:09;;;;;;;1.40;1.30;;;10.60;99.90;;;;;;4980803;28;20029;-82
2022/12/31 00:22:34;;;;;;;1.60;1.50;;;10.70;99.90;;;;;;4985015;28;20038;-84
2022/12/31 00:25:00;;;;;;;1.27;1.17;;;10.80;99.90;;;;;;4984934;28;20117;-81
2022/12/31 00:27:28;;;;;;;1.20;1.10;;;10.80;99.90;;;;;;4984112;28;20046;-82
2022/12/31 00:29:54;;;;;;;1.20;1.13;;;10.80;99.90;;;;;;4985900;28;20026;-82
2022/12/31 00:32:19;;;;;;;1.45;1.35;;;10.80;99.90;;;;;;4983011;28;20077;-83
2022/12/31 00:34:45;;;;;;;1.00;1.00;;;10.90;99.90;;;;;;4984998;28;20123;-83
2022/12/31 00:37:10;;;;;;;1.63;1.45;;;11.00;99.90;;;;;;4983427;28;20030;-82
2022/12/31 00:39:37;;;;;;;1.45;1.35;;;11.00;99.90;;;;;;4987501;28;20038;-80
2022/12/31 00:42:02;;;;;;;1.58;1.48;;;11.00;99.90;;;;;;4988117;28;20081;-84
2022/12/31 00:44:30;;;;;;;2.05;1.50;;;11.00;99.90;;;;;;4983952;28;20124;-82
2022/12/31 00:46:55;;;;;;;2.45;1.40;;;11.00;99.90;;;;;;4988165;28;20030;-82
2022/12/31 00:49:21;;;;;;;2.08;1.48;;;11.10;99.90;;;;;;4982320;28;20516;-81
2022/12/31 00:51:47;;;;;;;2.08;1.45;;;11.10;99.90;;;;;;4986302;28;20394;-83
2022/12/31 00:54:13;;;;;;;1.60;1.50;;;11.10;99.90;;;;;;4980362;28;20026;-81
2022/12/31 00:56:39;;;;;;;1.60;1.50;;;11.20;99.90;;;;;;4983854;28;20031;-82
2022/12/31 00:59:04;;;;;;;2.80;1.48;;;11.20;99.90;;;;;;4983256;28;20475;-81
2022/12/31 01:01:35;;;;;;;1.67;1.58;;;11.20;99.90;;;;;;4981530;28;20014;-82
2022/12/31 01:04:04;;;;;;;1.67;1.35;;;11.20;99.90;;;;;;4987186;28;20438;-83
2022/12/31 01:06:30;;;;;;;1.50;1.40;;;11.20;99.90;;;;;;4978001;28;20519;-83
2022/12/31 01:08:56;;;;;;;1.42;1.33;;;11.30;99.90;;;;;;4988174;28;20129;-81
2022/12/31 01:11:22;;;;;;;2.05;1.60;;;11.30;99.90;;;;;;4987098;28;20030;-81
2022/12/31 01:13:57;;;;;;;2.70;1.10;;;11.30;99.90;;;;;;4982430;28;20398;-81
2022/12/31 01:16:31;;;;;;;3.90;1.30;;;11.30;99.90;;;;;;4990250;28;20034;-81
2022/12/31 01:18:58;;;;;;;3.42;1.33;;;11.30;99.90;;;;;;4986706;28;20467;-83
2022/12/31 01:21:24;;;;;;;1.00;0.95;;;11.30;99.90;;;;;;4984710;28;20077;-82
2022/12/31 01:23:49;;;;;;;1.75;1.58;;;11.30;99.90;;;;;;4977058;28;20035;-81
2022/12/31 01:26:16;;;;;;;1.92;1.48;;;11.30;99.90;;;;;;4989612;28;20037;-82
2022/12/31 01:28:42;;;;;;;1.50;1.02;;;11.30;99.90;;;;;;4979317;28;20080;-82
2022/12/31 01:31:10;;;;;;;1.00;1.00;;;11.20;99.90;;;;;;4988512;28;20050;-81
2022/12/31 01:33:37;;;;;;;1.55;1.20;;;11.30;99.90;;;;;;4987451;28;20027;-83
2022/12/31 01:36:09;;;;;;;1.10;1.10;;;11.30;99.90;;;;;;4986293;28;20047;-81
2022/12/31 01:38:35;;;;;;;1.42;1.20;;;11.30;99.90;;;;;;4983578;28;20042;-83
2022/12/31 01:41:01;;;;;;;0.90;0.90;;;11.30;99.90;;;;;;4980008;28;20483;-81
2022/12/31 01:43:52;;;;;;;1.10;0.90;;;11.30;99.90;;;;;;4985679;28;20479;-83
2022/12/31 01:46:33;;;;;;;1.10;1.00;;;11.20;99.90;;;;;;4985212;28;20439;-81
2022/12/31 01:49:03;;;;;;;1.27;1.10;;;11.30;99.90;;;;;;4985709;28;20521;-82
2022/12/31 01:51:32;;;;;;;0.98;0.98;;;11.30;99.90;;;;;;4985118;28;20034;-82
2022/12/31 01:53:59;;;;;;;2.50;1.20;;;11.20;99.90;;;;;;4986678;28;20038;-81
2022/12/31 01:56:25;;;;;;;1.88;1.15;;;11.30;99.90;;;;;;4980590;28;20045;-81
2022/12/31 01:58:55;;;;;;;1.00;1.00;;;11.30;99.90;;;;;;4986834;28;20030;-81
2022/12/31 02:01:27;;;;;;;1.23;1.13;;;11.40;99.90;;;;;;4981694;28;20031;-85
2022/12/31 02:03:53;;;;;;;2.00;1.35;;;11.50;99.90;;;;;;4985032;28;20038;-81
2022/12/31 02:06:33;;;;;;;1.25;1.15;;;11.50;99.90;;;;;;4986648;28;20085;-83
2022/12/31 02:08:59;;;;;;;5.00;0.98;;;11.60;99.90;;;;;;4977990;28;20050;-81
2022/12/31 02:11:29;;;;;;;1.80;1.10;;;11.60;99.90;;;;;;4980543;28;20034;-82
2022/12/31 02:13:58;;;;;;;1.33;1.20;;;11.70;99.90;;;;;;4978888;28;20065;-83
2022/12/31 02:16:47;;;;;;;0.93;0.93;;;11.80;99.90;;;;;;4976898;28;20499;-81
2022/12/31 02:19:45;;;;;;;0.95;0.82;;;11.80;99.90;;;;;;4982296;28;20029;-81
2022/12/31 02:22:39;;;;;;;1.73;1.05;;;11.80;99.90;;;;;;4985822;28;20045;-81
2022/12/31 02:25:27;;;;;;;1.98;1.00;;;11.80;99.90;;;;;;4974109;28;20035;-83
2022/12/31 02:28:11;;;;;;;0.80;0.80;;;11.80;99.90;;;;;;4984714;28;20122;-82
2022/12/31 02:30:38;;;;;;;1.83;1.17;;;11.80;99.90;;;;;;4979917;28;20402;-82
2022/12/31 02:33:30;;;;;;;1.20;0.88;;;11.80;99.90;;;;;;4983011;28;20069;-82
2022/12/31 02:36:04;;;;;;;1.13;0.90;;;11.80;99.90;;;;;;4983826;28;20030;-82
2022/12/31 02:38:39;;;;;;;2.00;1.10;;;11.80;99.90;;;;;;4978043;28;20038;-84
2022/12/31 02:43:57;;;;;;;0.88;0.85;;;11.80;99.90;;;;;;4982091;28;20144;-82
2022/12/31 02:46:41;;;;;;;2.13;0.90;;;11.90;99.90;;;;;;4985644;28;20030;-82
2022/12/31 02:49:39;;;;;;;0.95;0.85;;;11.90;99.90;;;;;;4982643;28;20046;-83
2022/12/31 02:53:02;;;;;;;1.02;1.00;;;11.90;99.90;;;;;;4976367;28;20368;-83
2022/12/31 02:55:53;;;;;;;0.75;0.75;;;12.00;99.90;;;;;;4919152;29;20175;-82
2022/12/31 03:04:34;;;;;;;2.00;0.63;;;12.00;99.90;;;;;;4984991;28;20033;-84
2022/12/31 03:07:13;;;;;;;1.80;0.98;;;12.00;99.90;;;;;;4986808;28;20034;-84
2022/12/31 03:09:41;;;;;;;1.38;0.77;;;12.00;99.90;;;;;;4982073;28;20388;-84
2022/12/31 03:14:56;;;;;;;3.15;1.00;;;11.90;99.90;;;;;;4981713;28;20041;-82
2022/12/31 03:17:22;;;;;;;0.70;0.70;;;11.90;99.90;;;;;;4986205;28;20403;-83
2022/12/31 03:22:36;;;;;;;0.70;0.70;;;11.90;99.90;;;;;;4982903;28;20041;-84
2022/12/31 03:27:53;;;;;;;5.20;1.02;;;12.00;99.90;;;;;;4986350;28;20104;-83
2022/12/31 03:30:21;;;;;;;0.88;0.88;;;12.10;99.90;;;;;;4983630;28;20439;-84
2022/12/31 03:32:47;;;;;;;3.72;1.00;;;12.20;99.90;;;;;;4985161;28;20030;-82
2022/12/31 03:35:18;;;;;;;2.63;1.02;;;12.10;99.90;;;;;;4985742;28;20117;-83
2022/12/31 03:37:43;;;;;;;0.60;0.60;;;12.10;99.90;;;;;;4986816;28;20029;-83
2022/12/31 03:40:11;;;;;;;2.60;0.80;;;12.20;99.90;;;;;;4983186;28;20039;-82
2022/12/31 03:42:36;;;;;;;1.00;0.70;;;12.20;99.90;;;;;;4986205;28;20033;-86
2022/12/31 03:45:03;;;;;;;1.13;0.80;;;12.20;99.90;;;;;;4986716;28;20022;-83
2022/12/31 03:47:29;;;;;;;1.13;0.88;;;12.20;99.90;;;;;;4989477;28;20040;-85
2022/12/31 03:49:54;;;;;;;5.90;1.02;;;12.30;99.90;;;;;;4985134;28;20030;-83
2022/12/31 03:52:20;;;;;;;1.42;0.77;;;12.30;99.90;;;;;;4985414;28;20030;-83
2022/12/31 03:54:46;;;;;;;2.20;1.10;;;12.30;99.90;;;;;;4989122;28;20121;-83
2022/12/31 03:57:12;;;;;;;2.58;0.80;;;12.30;99.90;;;;;;4989148;28;20408;-84
2022/12/31 03:59:37;;;;;;;0.95;0.88;;;12.30;99.90;;;;;;4981088;28;20395;-83
2022/12/31 04:02:06;;;;;;;0.88;0.88;;;12.30;99.90;;;;;;4987069;28;20210;-83
2022/12/31 04:04:32;;;;;;;3.33;0.90;;;12.30;99.90;;;;;;4981279;28;20027;-83
2022/12/31 04:06:58;;;;;;;1.00;1.00;;;12.30;99.90;;;;;;4987639;28;20049;-83
2022/12/31 04:09:26;;;;;;;1.08;0.95;;;12.40;99.90;;;;;;4975461;28;20054;-84
2022/12/31 04:11:54;;;;;;;2.63;0.70;;;12.40;99.90;;;;;;4987646;28;20039;-82
2022/12/31 04:14:20;;;;;;;0.90;0.90;;;12.50;99.90;;;;;;4987466;28;20050;-84
2022/12/31 04:16:45;;;;;;;2.67;1.13;;;12.50;99.90;;;;;;4988792;28;20483;-83
2022/12/31 04:19:12;;;;;;;0.88;0.70;;;12.50;99.90;;;;;;4984755;28;20034;-84
2022/12/31 04:21:37;;;;;;;2.20;0.70;;;12.50;99.90;;;;;;4985060;28;20034;-84
2022/12/31 04:24:03;;;;;;;1.40;0.80;;;12.60;99.90;;;;;;4980335;28;20117;-83
2022/12/31 04:26:32;;;;;;;1.73;0.57;;;12.70;99.90;;;;;;4989815;28;20026;-84
2022/12/31 04:28:58;;;;;;;0.75;0.75;;;12.80;99.90;;;;;;4984155;28;20046;-83
2022/12/31 04:31:23;;;;;;;1.85;0.77;;;12.80;99.90;;;;;;4985391;28;20073;-84
2022/12/31 04:33:49;;;;;;;1.15;0.90;;;12.90;99.90;;;;;;4980107;28;20042;-84
2022/12/31 04:36:14;;;;;;;0.60;0.57;;;12.90;99.90;;;;;;4987477;28;20041;-85
2022/12/31 04:38:40;;;;;;;2.15;0.73;;;13.00;99.90;;;;;;4983080;28;20423;-84
2022/12/31 04:41:18;;;;;;;0.47;0.47;;;12.90;99.90;;;;;;4984813;28;20030;-83
2022/12/31 04:43:49;;;;;;;0.50;0.50;;;13.10;99.90;;;;;;4979196;28;20530;-85
2022/12/31 04:46:21;;;;;;;1.65;0.70;;;13.00;99.90;;;;;;4978210;28;20113;-83
2022/12/31 04:48:49;;;;;;;4.80;0.77;;;13.00;99.90;;;;;;4978871;28;20390;-82
2022/12/31 04:51:15;;;;;;;0.57;0.57;;;13.10;99.90;;;;;;4982289;28;20026;-85
2022/12/31 04:53:41;;;;;;;0.52;0.50;;;13.20;99.90;;;;;;4984738;28;20390;-83
2022/12/31 04:56:07;;;;;;;2.08;0.40;;;13.20;99.90;;;;;;4982550;28;20574;-83
2022/12/31 04:58:33;;;;;;;0.52;0.52;;;13.20;99.90;;;;;;4977751;28;20138;-86
2022/12/31 05:01:07;;;;;;;0.60;0.60;;;13.20;99.90;;;;;;4979560;28;20027;-84
2022/12/31 05:03:36;;;;;;;0.95;0.60;;;13.20;99.90;;;;;;4980998;28;20607;-84
2022/12/31 05:06:07;;;;;;;1.48;0.68;;;13.30;99.90;;;;;;4980449;28;20380;-82
2022/12/31 05:08:33;;;;;;;0.35;0.35;;;13.30;99.90;;;;;;4987160;28;20030;-82
2022/12/31 05:10:58;;;;;;;0.95;0.40;;;13.30;99.90;;;;;;4985358;28;20084;-83
2022/12/31 05:13:24;;;;;;;3.60;0.50;;;13.30;99.90;;;;;;4983596;28;20030;-84
2022/12/31 05:15:50;;;;;;;0.30;0.30;;;13.40;99.90;;;;;;4988828;28;20134;-81
2022/12/31 05:18:16;;;;;;;0.57;0.52;;;13.40;99.90;;;;;;4987198;28;20034;-83
2022/12/31 05:20:42;;;;;;;0.50;0.50;;;13.40;99.90;;;;;;4985739;28;20030;-83
2022/12/31 05:23:13;;;;;;;1.17;0.70;;;13.50;99.90;;;;;;4981793;28;20526;-82
2022/12/31 05:25:42;;;;;;;1.02;0.45;;;13.50;99.90;;;;;;4983637;28;20026;-82
2022/12/31 05:28:08;;;;;;;1.38;0.30;;;13.50;99.90;;;;;;4987911;28;20042;-82
2022/12/31 05:30:34;;;;;;;0.30;0.30;;;13.50;99.90;;;;;;4986650;28;20069;-82
2022/12/31 05:32:59;;;;;;;0.75;0.60;;;13.50;99.90;;;;;;4984879;28;20121;-81
2022/12/31 05:35:31;;;;;;;0.40;0.35;;;13.50;99.90;;;;;;4980138;28;20683;-81
2022/12/31 05:37:58;;;;;;;0.50;0.50;;;13.50;99.90;;;;;;4986053;28;20034;-82
2022/12/31 05:40:24;;;;;;;1.63;0.30;;;13.50;99.90;;;;;;4985188;28;20033;-81
2022/12/31 05:42:49;;;;;;;3.00;0.45;;;13.50;99.90;;;;;;4984727;28;20026;-84
2022/12/31 05:45:18;;;;;;;0.52;0.35;;;13.50;99.90;;;;;;4986114;28;20018;-82
2022/12/31 05:47:44;;;;;;;0.85;0.30;;;13.60;99.90;;;;;;4985413;28;20050;-82
2022/12/31 05:50:15;;;;;;;0.45;0.45;;;13.70;99.90;;;;;;4980782;28;20565;-82
2022/12/31 05:52:42;;;;;;;0.32;0.32;;;13.80;99.90;;;;;;4980669;28;20026;-84
2022/12/31 05:55:09;;;;;;;0.32;0.32;;;13.90;99.90;;;;;;4986333;28;20101;-84
2022/12/31 05:57:34;;;;;;;0.88;0.35;;;13.90;99.90;;;;;;4982619;28;20093;-83
2022/12/31 06:00:00;;;;;;;2.22;0.45;;;13.90;99.90;;;;;;4985433;28;20034;-84
2022/12/31 06:02:26;;;;;;;2.25;0.40;;;13.90;99.90;;;;;;4984388;28;20596;-81
2022/12/31 06:04:51;;;;;;;1.65;0.57;;;13.90;99.90;;;;;;4981515;28;20026;-83
2022/12/31 06:07:21;;;;;;;1.08;0.65;;;13.90;99.90;;;;;;4981663;28;20042;-84
2022/12/31 06:09:47;;;;;;;0.77;0.77;;;14.00;99.90;;;;;;4995778;28;20510;-84
2022/12/31 06:12:13;;;;;;;1.85;1.00;;;14.00;99.90;;;;;;4981619;28;20420;-83
2022/12/31 06:14:42;;;;;;;2.75;1.63;;;14.00;99.90;;;;;;4981094;28;20026;-84
2022/12/31 06:17:12;;;;;;;4.32;2.03;;;14.00;99.90;;;;;;4987104;28;20053;-83
2022/12/31 06:19:37;;;;;;;2.90;1.02;;;13.90;99.90;;;;;;4979240;28;20038;-82
2022/12/31 06:22:03;;;;;;;2.28;0.60;;;14.10;99.90;;;;;;4981090;28;20023;-84
2022/12/31 06:24:28;;;;;;;0.80;0.80;;;14.10;99.90;;;;;;4978069;28;20046;-85
2022/12/31 06:26:54;;;;;;;1.88;0.40;;;14.20;99.90;;;;;;4985754;28;20076;-83
2022/12/31 06:29:19;;;;;;;1.33;0.47;;;14.30;99.90;;;;;;4984296;28;20185;-84
2022/12/31 06:31:48;;;;;;;0.35;0.35;;;14.30;99.90;;;;;;4979638;28;20055;-82
2022/12/31 06:34:14;;;;;;;2.10;0.60;;;14.40;99.90;;;;;;4984452;28;20463;-83
2022/12/31 06:36:42;;;;;;;0.85;0.35;;;14.30;99.90;;;;;;4985502;28;20041;-81
2022/12/31 06:39:07;;;;;;;1.92;0.43;;;14.40;99.90;;;;;;4982648;28;21205;-83
2022/12/31 06:41:39;;;;;;;0.30;0.30;;;14.40;99.90;;;;;;4983887;28;20038;-84
2022/12/31 06:44:05;;;;;;;0.32;0.32;;;14.40;99.90;;;;;;4980732;28;20042;-83
2022/12/31 06:46:30;;;;;;;0.80;0.40;;;14.40;99.90;;;;;;4984800;28;20244;-83
2022/12/31 06:48:56;;;;;;;0.20;0.20;;;14.50;99.90;;;;;;4976047;28;20144;-82
2022/12/31 06:51:21;;;;;;;0.93;0.50;;;14.40;99.90;;;;;;4986016;28;20023;-83
2022/12/31 06:53:48;;;;;;;0.60;0.60;;;14.40;99.90;;;;;;4980663;28;20182;-83
2022/12/31 06:56:17;;;;;;;1.08;0.50;;;14.40;99.90;;;;;;4986830;28;20036;-83
2022/12/31 06:58:44;;;;;;;2.63;0.40;;;14.40;99.90;;;;;;4978434;28;20030;-85
2022/12/31 07:01:49;;;;;;;0.50;0.32;;;14.40;99.90;;;;;;4981422;28;20177;-83
2022/12/31 07:04:46;;;;;;;0.30;0.30;;;14.40;99.90;;;;;;4983637;28;20027;-83
2022/12/31 07:07:28;;;;;;;;;;;14.50;99.90;;;;;;4983770;28;20034;-82
2022/12/31 07:10:35;;;;;;;1.05;0.43;;;14.50;99.90;;;;;;4982005;28;19928;-82
2022/12/31 07:13:20;;;;;;;0.55;0.55;;;14.50;99.90;;;;;;4978176;28;20402;-83
2022/12/31 07:16:06;;;;;;;2.07;0.57;;;14.50;99.90;;;;;;4977029;28;20046;-84
2022/12/31 07:18:45;;;;;;;;;;;14.50;99.90;;;;;;4979925;28;20491;-82
2022/12/31 07:21:14;;;;;;;7.85;1.60;;;14.50;99.90;;;;;;4979079;28;19932;-82
2022/12/31 07:23:41;;;;;;;6.07;0.90;;;14.50;99.90;;;;;;4976899;28;20045;-83
2022/12/31 07:26:38;;;;;;;1.83;1.10;;;14.50;99.90;;;;;;4982927;28;20026;-84
2022/12/31 07:29:10;;;;;;;1.13;0.80;;;14.50;99.90;;;;;;4962093;28;20046;-82
2022/12/31 07:32:26;;;;;;;3.28;1.35;;;14.60;99.90;;;;;;4985376;28;20046;-82
2022/12/31 07:35:01;;;;;;;1.75;0.80;;;14.70;99.90;;;;;;4943673;28;20038;-83
2022/12/31 07:37:50;;;;;;;0.90;0.90;;;14.70;99.90;;;;;;4981705;28;20094;-82
2022/12/31 07:40:27;;;;;;;0.57;0.57;;;14.80;99.90;;;;;;4974994;28;20111;-82
2022/12/31 07:43:14;;;;;;;1.85;0.60;;;14.80;99.90;;;;;;4981127;28;20030;-83
2022/12/31 07:45:55;;;;;;;0.40;0.40;;;14.90;99.90;;;;;;4978566;28;20446;-83
2022/12/31 07:48:26;;;;;;;9.65;1.02;;;14.80;99.90;;;;;;4980953;28;20097;-85
2022/12/31 07:50:54;;;;;;;0.77;0.50;;;14.80;99.90;;;;;;4980709;28;20022;-83
2022/12/31 07:53:21;;;;;;;0.68;0.68;;;14.80;99.90;;;;;;4983797;28;20124;-82
2022/12/31 07:55:57;;;;;;;0.98;0.55;;;14.80;99.90;;;;;;4984304;28;20406;-85
2022/12/31 07:58:46;;;;;;;2.53;0.57;;;14.90;99.90;;;;;;4986788;28;20037;-82
2022/12/31 08:01:15;;;;;;;0.77;0.60;;;15.00;99.90;;;;;;4972955;28;20151;-85
2022/12/31 08:04:06;;;;;;;8.10;0.50;;;14.90;99.90;;;;;;4988650;28;20194;-82
2022/12/31 08:07:01;;;;;;;2.05;0.52;;;14.90;99.90;;;;;;4982462;28;20030;-83
2022/12/31 08:09:36;;;;;;;2.78;1.08;;;14.90;99.90;;;;;;4983853;28;20085;-83
2022/12/31 08:12:02;;;;;;;0.75;0.55;;;14.90;99.90;;;;;;4980090;28;20118;-82
2022/12/31 08:14:29;;;;;;;1.98;0.55;;;15.00;99.90;;;;;;4982519;28;20681;-82
2022/12/31 08:16:57;;;;;;;4.38;0.88;;;14.90;99.90;;;;;;4984829;28;20502;-83
2022/12/31 08:19:27;;;;;;;1.85;0.60;;;14.90;99.90;;;;;;4980131;28;20026;-81
2022/12/31 08:22:02;;;;;;;1.40;0.50;;;15.00;99.90;;;;;;4981957;28;20069;-82
2022/12/31 08:24:50;;;;;;;2.05;0.73;;;15.00;99.90;;;;;;4985082;28;20034;-84
2022/12/31 08:27:24;;;;;;;0.57;0.40;;;14.90;99.90;;;;;;4985338;28;20136;-83
2022/12/31 08:30:16;;;;;;;1.08;0.57;;;14.90;99.90;;;;;;4979532;28;20089;-82
2022/12/31 08:33:01;;;;;;;1.13;0.65;;;14.90;99.90;;;;;;4982880;28;20130;-82
2022/12/31 08:35:54;;;;;;;1.95;0.80;;;14.80;99.90;;;;;;4978326;28;20062;-82
2022/12/31 08:38:41;;;;;;;1.08;0.50;;;14.70;99.90;;;;;;4981865;28;20061;-81
2022/12/31 08:41:26;;;;;;;4.32;0.93;;;14.70;99.90;;;;;;4983642;28;20034;-81
2022/12/31 08:44:13;;;;;;;1.23;0.60;;;14.60;99.90;;;;;;4982565;28;20027;-82
2022/12/31 08:47:03;;;;;;;3.10;0.70;;;14.60;99.90;;;;;;4981141;28;20042;-80
2022/12/31 08:49:31;;;;;;;1.05;0.80;;;14.60;99.90;;;;;;4985222;28;20092;-83
2022/12/31 08:51:58;;;;;;;4.82;1.48;;;14.50;99.90;;;;;;4983996;28;20457;-81
2022/12/31 08:54:24;;;;;;;4.85;0.80;;;14.50;99.90;;;;;;4986975;28;20249;-82
2022/12/31 08:57:08;;;;;;;0.55;0.40;;;14.50;99.90;;;;;;4983093;28;20022;-82
2022/12/31 08:59:43;;;;;;;4.10;0.82;;;14.50;99.90;;;;;;4982900;28;20046;-82
2022/12/31 09:03:02;;;;;;;2.83;0.88;;;14.60;99.90;;;;;;4978112;28;20041;-83
2022/12/31 09:05:57;;;;;;;7.88;1.00;;;14.70;99.90;;;;;;4902987;29;20587;-82
2022/12/31 09:08:25;;;;;;;0.98;0.80;;;14.70;99.90;;;;;;4975453;28;20148;-82
2022/12/31 09:10:59;;;;;;;2.80;0.70;;;14.80;99.90;;;;;;4982209;28;20050;-83
2022/12/31 09:13:40;;;;;;;1.05;0.70;;;14.90;99.90;;;;;;4979261;28;20447;-82
2022/12/31 09:17:03;;;;;;;1.08;0.68;;;14.90;99.90;;;;;;4978395;28;20042;-81
2022/12/31 09:19:29;;;;;;;1.63;0.73;;;15.00;99.90;;;;;;4957662;28;20075;-85
2022/12/31 09:21:54;;;;;;;1.38;0.70;;;15.20;99.90;;;;;;4965978;28;20081;-82
2022/12/31 09:24:20;;;;;;;2.65;0.80;;;15.20;99.90;;;;;;4973797;28;20124;-83
2022/12/31 09:27:21;;;;;;;0.95;0.65;;;15.20;99.90;;;;;;4987830;28;20030;-83
2022/12/31 09:29:53;;;;;;;2.63;0.90;;;15.30;99.90;;;;;;4985391;28;20117;-84
2022/12/31 09:32:22;;;;;;;2.55;0.80;;;15.40;99.90;;;;;;4985424;28;20029;-83
2022/12/31 09:35:06;;;;;;;3.45;0.60;;;15.50;99.90;;;;;;4988354;28;20080;-82
2022/12/31 09:38:01;;;;;;;2.28;0.60;;;15.50;99.90;;;;;;4981245;28;20097;-82
2022/12/31 09:40:45;;;;;;;10.38;0.68;;;15.60;99.90;;;;;;4977880;28;20026;-86
2022/12/31 09:43:42;;;;;;;2.88;1.02;;;15.60;99.90;;;;;;4978345;28;20073;-82
2022/12/31 09:46:31;;;;;;;1.73;0.70;;;15.60;99.90;;;;;;4984435;28;20038;-82
2022/12/31 09:49:15;;;;;;;3.90;0.80;;;15.50;99.90;;;;;;4978666;28;20043;-82
2022/12/31 09:52:04;;;;;;;5.38;0.70;;;15.60;99.90;;;;;;4982752;28;20026;-83
2022/12/31 09:54:36;;;;;;;0.75;0.65;;;15.60;99.90;;;;;;4966396;28;20046;-83
2022/12/31 09:57:19;;;;;;;2.28;0.73;;;15.60;99.90;;;;;;4987161;28;20034;-82
2022/12/31 10:00:04;;;;;;;1.40;0.60;;;15.70;99.90;;;;;;4979850;28;20033;-82
2022/12/31 10:02:29;;;;;;;1.85;0.70;;;15.70;99.90;;;;;;4978134;28;20032;-82
2022/12/31 10:05:17;;;;;;;4.28;0.93;;;15.70;99.90;;;;;;4982352;28;20125;-82
2022/12/31 10:08:12;;;;;;;6.10;1.17;;;15.70;99.90;;;;;;4984665;28;20041;-83
2022/12/31 10:10:49;;;;;;;4.72;1.75;;;15.80;99.90;;;;;;4950792;28;1030918;-82
2022/12/31 10:13:39;;;;;;;2.88;0.70;;;15.80;99.90;;;;;;4983781;28;20390;-83
2022/12/31 10:16:48;;;;;;;2.80;0.70;;;15.90;99.90;;;;;;4982811;28;20033;-83
2022/12/31 10:19:31;;;;;;;4.40;1.40;;;15.90;99.90;;;;;;4947648;29;20500;-82
2022/12/31 10:22:18;;;;;;;3.92;1.15;;;15.90;99.90;;;;;;4982143;28;20084;-82
2022/12/31 10:24:58;;;;;;;1.77;0.60;;;15.90;99.90;;;;;;4980859;28;20054;-83
2022/12/31 10:27:45;;;;;;;4.95;1.23;;;15.80;99.90;;;;;;4983637;28;20030;-82
2022/12/31 10:30:20;;;;;;;2.33;0.90;;;15.80;99.90;;;;;;4983592;28;20049;-81
2022/12/31 10:33:37;;;;;;;3.78;0.93;;;15.80;99.90;;;;;;4982621;28;20610;-82
2022/12/31 10:36:29;;;;;;;3.20;1.00;;;15.80;99.90;;;;;;4964580;28;20054;-81
2022/12/31 10:39:26;;;;;;;3.28;0.95;;;15.90;99.90;;;;;;4956418;28;20169;-83
2022/12/31 10:42:22;;;;;;;3.67;0.80;;;16.00;99.90;;;;;;4980388;28;20525;-82
2022/12/31 10:45:26;;;;;;;1.92;0.90;;;16.10;99.90;;;;;;5001229;28;20050;-82
2022/12/31 10:48:36;;;;;;;4.07;1.15;;;16.10;99.90;;;;;;4976375;28;20034;-82
2022/12/31 10:51:29;;;;;;;2.15;0.80;;;16.10;99.90;;;;;;4975962;28;20033;-83
2022/12/31 10:54:13;;;;;;;1.30;0.90;;;16.10;99.90;;;;;;4985913;28;20168;-83
2022/12/31 10:56:47;;;;;;;5.53;1.05;;;16.00;99.90;;;;;;4980349;28;20060;-84
2022/12/31 11:00:00;;;;;;;5.32;1.00;;;16.10;99.90;;;;;;4980967;28;20392;-82
2022/12/31 11:03:03;;;;;;;3.50;0.80;;;16.10;99.90;;;;;;4977432;28;20030;-82
2022/12/31 11:05:46;;;;;;;2.03;0.82;;;16.10;99.90;;;;;;4980259;28;20034;-83
2022/12/31 11:08:32;;;;;;;1.80;0.98;;;16.20;99.90;;;;;;4977091;28;20117;-82
2022/12/31 11:11:18;;;;;;;1.23;0.90;;;16.20;99.90;;;;;;4979093;28;20046;-83
2022/12/31 11:14:21;;;;;;;0.85;0.70;;;16.30;99.90;;;;;;4980353;28;20027;-83
2022/12/31 11:17:14;;;;;;;2.97;0.80;;;16.30;99.90;;;;;;4979005;28;20037;-84
2022/12/31 11:20:17;;;;;;;3.88;0.88;;;16.30;99.90;;;;;;4985740;28;20085;-82
2022/12/31 11:23:20;;;;;;;3.88;0.80;;;16.30;99.90;;;;;;4977174;28;20054;-83
2022/12/31 11:26:05;;;;;;;1.98;0.85;;;16.30;99.90;;;;;;4978214;28;20026;-84
2022/12/31 11:28:47;;;;;;;1.60;1.10;;;16.30;99.90;;;;;;4981123;28;20042;-83
2022/12/31 11:31:32;;;;;;;0.95;0.50;;;16.30;99.90;;;;;;4985855;28;20190;-83
2022/12/31 11:34:22;;;;;;;1.73;0.90;;;16.40;99.90;;;;;;4986049;28;20065;-82
2022/12/31 11:37:15;;;;;;;2.28;1.02;;;16.40;99.90;;;;;;4976279;28;20286;-85
2022/12/31 11:40:03;;;;;;;3.22;1.17;;;16.50;99.90;;;;;;4982061;28;20058;-83
2022/12/31 11:42:48;;;;;;;4.38;1.60;;;16.50;99.90;;;;;;4988665;28;20030;-81
2022/12/31 11:45:35;;;;;;;5.85;1.55;;;16.50;99.90;;;;;;4986781;28;20117;-83
2022/12/31 11:48:35;;;;;;;3.38;1.30;;;16.50;99.90;;;;;;4982292;28;20053;-84
2022/12/31 11:51:46;;;;;;;9.65;1.73;;;16.40;99.90;;;;;;4984418;28;20517;-83
2022/12/31 11:54:34;;;;;;;5.53;1.23;;;16.40;99.90;;;;;;4982148;28;20042;-84
2022/12/31 11:57:16;;;;;;;4.63;1.85;;;16.40;99.90;;;;;;4988241;28;20036;-84
2022/12/31 11:59:41;;;;;;;3.05;1.40;;;16.40;99.90;;;;;;4988488;28;20072;-83
2022/12/31 12:02:41;;;;;;;3.47;0.93;;;16.40;99.90;;;;;;4984516;28;20034;-83
2022/12/31 12:05:08;;;;;;;4.28;1.25;;;16.30;99.90;;;;;;4984617;28;20109;-82
2022/12/31 12:07:34;;;;;;;6.47;1.40;;;16.20;99.90;;;;;;4986073;28;20519;-84
2022/12/31 12:10:05;;;;;;;7.20;1.75;;;16.10;99.90;;;;;;4986501;28;20039;-83
2022/12/31 12:12:42;;;;;;;3.55;1.17;;;16.20;99.90;;;;;;4980305;28;20042;-83
2022/12/31 12:15:10;;;;;;;4.78;1.30;;;16.30;99.90;;;;;;4982258;28;20026;-82
2022/12/31 12:17:36;;;;;;;5.43;1.70;;;16.30;99.90;;;;;;4977779;28;20049;-84
2022/12/31 12:20:17;;;;;;;4.45;1.70;;;16.30;99.90;;;;;;4984287;28;20010;-84
2022/12/31 12:22:55;;;;;;;5.55;1.88;;;16.40;99.90;;;;;;4985446;28;20022;-83
2022/12/31 12:25:24;;;;;;;6.40;1.90;;;16.40;99.90;;;;;;4984328;28;20038;-84
2022/12/31 12:27:50;;;;;;;5.72;1.23;;;16.40;99.90;;;;;;4982811;28;20069;-84
2022/12/31 12:30:27;;;;;;;4.88;1.45;;;16.40;99.90;;;;;;4987041;28;20248;-85
2022/12/31 12:32:58;;;;;;;2.95;0.90;;;16.40;99.90;;;;;;4982150;28;20138;-83
2022/12/31 12:35:28;;;;;;;8.43;1.17;;;16.40;99.90;;;;;;4988927;28;20027;-82
2022/12/31 12:38:03;;;;;;;5.82;1.58;;;16.50;99.90;;;;;;4983560;28;20022;-84
2022/12/31 12:40:30;;;;;;;6.15;2.45;;;16.50;99.90;;;;;;4983407;28;20482;-83
2022/12/31 12:42:55;;;;;;;7.70;2.42;;;16.50;99.90;;;;;;4982709;28;20037;-85
2022/12/31 12:45:24;;;;;;;3.03;0.98;;;16.60;99.90;;;;;;4986121;28;20232;-85
2022/12/31 12:47:58;;;;;;;3.03;1.15;;;16.70;99.90;;;;;;4981601;28;20042;-84
2022/12/31 12:50:31;;;;;;;3.13;1.08;;;16.60;99.90;;;;;;4985130;28;20031;-84
2022/12/31 12:53:32;;;;;;;4.63;1.00;;;16.60;99.90;;;;;;4985618;28;20030;-85
2022/12/31 12:56:27;;;;;;;4.20;1.60;;;16.70;99.90;;;;;;4973584;28;20023;-84
2022/12/31 12:59:29;;;;;;;2.10;1.20;;;16.70;99.90;;;;;;4986625;28;20453;-84
2022/12/31 13:02:28;;;;;;;1.98;0.90;;;16.70;99.90;;;;;;4980616;28;20125;-83
2022/12/31 13:05:04;;;;;;;3.50;1.15;;;16.70;99.90;;;;;;4984855;28;20045;-83
2022/12/31 13:07:50;;;;;;;2.65;1.10;;;16.70;99.90;;;;;;4985617;28;20429;-83
2022/12/31 13:10:26;;;;;;;3.97;0.70;;;16.70;99.90;;;;;;4978307;28;20081;-85
2022/12/31 13:13:21;;;;;;;5.47;1.13;;;16.80;99.90;;;;;;4985825;28;20031;-84
2022/12/31 13:16:06;;;;;;;3.25;1.23;;;16.80;99.90;;;;;;4981561;28;20061;-86
2022/12/31 13:18:55;;;;;;;4.85;1.25;;;16.80;99.90;;;;;;4985547;28;20031;-85
2022/12/31 13:21:52;;;;;;;6.40;1.02;;;16.80;99.90;;;;;;4986653;28;20037;-85
2022/12/31 13:24:43;;;;;;;3.03;0.77;;;16.90;99.90;;;;;;4974353;28;20368;-84
2022/12/31 13:27:22;;;;;;;7.28;1.05;;;16.90;99.90;;;;;;4973133;28;20031;-85
2022/12/31 13:29:49;;;;;;;3.17;0.85;;;16.90;99.90;;;;;;4987035;28;20030;-85
2022/12/31 13:32:22;;;;;;;5.07;1.30;;;16.90;99.90;;;;;;4984238;28;20058;-85
2022/12/31 13:34:53;;;;;;;1.67;0.80;;;16.90;99.90;;;;;;4981186;28;20092;-87
2022/12/31 13:37:29;;;;;;;5.53;0.90;;;16.90;99.90;;;;;;4976136;28;20023;-83
2022/12/31 13:40:01;;;;;;;5.90;1.25;;;16.90;99.90;;;;;;4982058;28;20541;-85
2022/12/31 13:42:49;;;;;;;3.85;0.90;;;17.00;99.90;;;;;;4977243;28;20556;-84
2022/12/31 13:45:26;;;;;;;2.15;0.70;;;17.00;99.90;;;;;;4981089;28;20057;-85
2022/12/31 13:48:04;;;;;;;4.20;1.10;;;17.00;99.90;;;;;;4977935;28;20050;-82
2022/12/31 13:50:53;;;;;;;1.13;0.80;;;17.00;99.90;;;;;;4981697;28;20088;-83